Time;durP1;ratioP1;P1;durP2;ratioP2;P2;SDS_P1;SDS_P2;PMS_P1;PMS_P2;Temp;Humidity;BMP_temperature;BMP_pressure;BME280_temperature;BME280_humidity;BME280_pressure;Samples;Min_cycle;Max_cycle;Signal;HPM_P1;HPM_P2
2023/09/07 05:52:47;;;;;;;10.87;6.73;;;;;;;19.98;66.66;100886.88;4703206;30;20228;-71
2023/09/07 05:55:16;;;;;;;12.37;5.40;;;;;;;19.98;66.67;100882.31;4707351;30;20262;-70
2023/09/07 05:57:46;;;;;;;8.33;5.37;;;;;;;19.99;66.78;100889.38;4706100;30;20308;-71
2023/09/07 06:00:21;;;;;;;11.53;5.33;;;;;;;20.01;66.82;100886.50;4704248;30;20204;-70
2023/09/07 06:02:53;;;;;;;9.63;4.93;;;;;;;20.02;66.68;100889.00;4705212;30;20703;-71
2023/09/07 06:05:22;;;;;;;7.23;4.83;;;;;;;20.02;66.59;100888.16;4720466;24;20216;-71
2023/09/07 06:07:53;;;;;;;7.43;4.60;;;;;;;20.03;67.24;100896.03;4719279;30;20200;-72
2023/09/07 06:10:21;;;;;;;10.37;4.93;;;;;;;20.05;67.32;100887.78;4718474;30;20308;-72
2023/09/07 06:15:50;;;;;;;8.60;4.97;;;;;;;20.07;66.87;100899.97;4717974;30;20344;-73
2023/09/07 06:18:22;;;;;;;14.47;5.93;;;;;;;20.09;67.03;100907.84;4703734;30;20521;-71
2023/09/07 06:20:53;;;;;;;12.70;5.53;;;;;;;20.10;67.30;100901.44;4718911;30;20617;-73
2023/09/07 06:23:25;;;;;;;23.90;5.83;;;;;;;20.14;67.43;100905.41;4718583;30;20267;-73
2023/09/07 06:26:04;;;;;;;12.73;5.70;;;;;;;20.15;67.38;100904.34;4719598;30;20527;-74
2023/09/07 06:28:49;;;;;;;10.53;5.50;;;;;;;20.16;67.47;100895.25;4717911;30;20291;-71
2023/09/07 06:31:35;;;;;;;10.63;5.77;;;;;;;20.18;67.59;100902.13;4716886;30;20377;-73
2023/09/07 06:34:04;;;;;;;18.50;6.53;;;;;;;20.22;67.17;100899.88;4719533;30;20208;-72
2023/09/07 06:36:36;;;;;;;9.40;5.87;;;;;;;20.25;67.27;100904.81;4719628;30;20220;-73
2023/09/07 06:39:16;;;;;;;6.90;5.20;;;;;;;20.31;67.87;100903.22;4705358;30;20224;-73
2023/09/07 06:41:49;;;;;;;7.47;5.07;;;;;;;20.34;67.76;100910.88;4714574;30;20248;-74
2023/09/07 06:44:24;;;;;;;11.60;5.97;;;;;;;20.38;67.33;100904.09;4705980;30;20283;-72
2023/09/07 06:47:00;;;;;;;7.83;4.77;;;;;;;20.42;67.96;100916.09;4704380;30;20285;-73
2023/09/07 06:49:58;;;;;;;9.13;5.07;;;;;;;20.49;68.76;100912.41;4701551;30;20217;-72
2023/09/07 06:52:41;;;;;;;11.20;5.53;;;;;;;20.57;68.15;100914.94;4702070;30;20247;-71
2023/09/07 06:55:13;;;;;;;11.83;5.70;;;;;;;20.63;67.29;100924.91;4705387;30;20208;-72
2023/09/07 06:57:42;;;;;;;11.07;5.10;;;;;;;20.69;66.78;100917.03;4705983;30;23038;-71
2023/09/07 07:00:11;;;;;;;13.27;6.80;;;;;;;20.77;66.83;100916.84;4702821;30;20228;-71
2023/09/07 07:02:39;;;;;;;10.40;5.27;;;;;;;20.79;67.02;100929.09;4702835;30;20303;-70
2023/09/07 07:05:08;;;;;;;10.47;5.07;;;;;;;20.85;66.76;100924.72;4700973;30;20224;-78
2023/09/07 07:07:36;;;;;;;10.17;5.10;;;;;;;20.91;66.55;100915.84;4704117;30;20352;-78
2023/09/07 07:10:09;;;;;;;6.90;4.87;;;;;;;20.96;66.99;100927.66;4702208;30;20228;-76
2023/09/07 07:12:51;;;;;;;11.90;5.47;;;;;;;20.97;66.70;100926.63;4702294;30;20232;-71
2023/09/07 07:15:26;;;;;;;9.13;4.87;;;;;;;21.00;67.18;100933.50;4707073;30;20235;-75
2023/09/07 07:17:58;;;;;;;9.07;5.10;;;;;;;21.01;66.71;100937.84;4704049;30;20232;-74
2023/09/07 07:20:29;;;;;;;7.50;4.87;;;;;;;21.05;66.58;100944.47;4704368;30;20224;-77
2023/09/07 07:23:00;;;;;;;8.10;4.93;;;;;;;21.08;66.40;100935.16;4702458;30;20239;-76
2023/09/07 07:25:31;;;;;;;9.30;5.63;;;;;;;21.11;66.74;100932.84;4702687;30;20227;-75
2023/09/07 09:05:15;;;;;;;5.80;4.15;;;;;;;28.44;45.00;100909.78;4688135;30;20220;-69
2023/09/07 09:07:43;;;;;;;5.78;4.05;;;;;;;28.71;45.55;100904.34;4702964;30;20209;-74
2023/09/07 09:10:12;;;;;;;10.77;3.83;;;;;;;29.08;44.39;100909.09;4702107;30;20806;-76
2023/09/07 09:12:46;;;;;;;7.70;4.13;;;;;;;29.71;42.85;100910.13;4700362;30;21891;-76
2023/09/07 09:15:14;;;;;;;9.45;4.63;;;;;;;30.57;41.62;100905.91;4701750;30;20244;-72
2023/09/07 09:17:42;;;;;;;6.60;3.95;;;;;;;31.93;38.04;100908.94;4704896;30;20251;-79
2023/09/07 09:20:23;;;;;;;8.35;3.88;;;;;;;34.13;34.34;100899.63;4702563;30;20220;-76
2023/09/07 09:22:53;;;;;;;6.70;3.70;;;;;;;36.83;30.76;100889.78;4702154;30;20305;-75
2023/09/07 09:25:21;;;;;;;8.35;3.95;;;;;;;39.02;27.86;100887.97;4699407;30;20221;-77
2023/09/07 09:27:49;;;;;;;5.78;3.97;;;;;;;37.52;28.79;100894.94;4703192;30;20309;-76
2023/09/07 09:30:17;;;;;;;5.07;3.60;;;;;;;34.72;32.54;100888.06;4705406;30;20372;-76
2023/09/07 09:32:45;;;;;;;5.60;3.83;;;;;;;32.72;35.32;100895.13;4705448;30;20778;-76
2023/09/07 09:35:17;;;;;;;6.22;4.13;;;;;;;31.32;37.37;100895.31;4703846;30;20510;-78
2023/09/07 09:37:48;;;;;;;8.82;3.92;;;;;;;30.37;38.58;100883.94;4701952;30;20216;-74
2023/09/07 09:40:17;;;;;;;8.15;4.57;;;;;;;29.78;40.69;100886.13;4701538;30;20240;-77
2023/09/07 09:42:45;;;;;;;7.43;4.07;;;;;;;29.02;42.27;100889.13;4700648;30;20251;-71
2023/09/07 09:45:14;;;;;;;5.53;3.75;;;;;;;28.49;43.20;100879.03;4700515;30;20220;-71
2023/09/07 09:47:43;;;;;;;5.00;3.58;;;;;;;28.05;44.01;100879.03;4708915;30;20263;-72
2023/09/07 09:50:12;;;;;;;9.50;4.60;;;;;;;27.71;45.51;100883.72;4704519;30;20212;-75
2023/09/07 09:52:40;;;;;;;11.77;3.92;;;;;;;27.55;46.36;100872.88;4705033;30;20672;-78
2023/09/07 09:55:12;;;;;;;9.63;4.30;;;;;;;28.37;44.32;100864.69;4701869;30;20263;-76
2023/09/07 09:57:41;;;;;;;7.05;3.78;;;;;;;29.27;42.60;100866.66;4706127;30;20212;-76
2023/09/07 10:00:25;;;;;;;10.85;4.03;;;;;;;29.09;43.33;100869.78;4701777;30;20571;-72
2023/09/07 10:03:03;;;;;;;7.85;4.18;;;;;;;31.43;39.16;100861.31;4702518;30;20326;-76
2023/09/07 10:05:33;;;;;;;6.22;4.45;;;;;;;36.54;31.47;100848.72;4705092;30;20307;-76
2023/09/07 10:08:09;;;;;;;6.70;4.30;;;;;;;39.46;27.19;100838.75;4706298;30;20260;-80
2023/09/07 10:10:39;;;;;;;6.78;4.43;;;;;;;39.72;26.85;100844.19;4703300;30;20217;-75
2023/09/07 10:13:07;;;;;;;9.70;4.88;;;;;;;40.30;26.26;100843.34;4705291;30;20616;-71
2023/09/07 10:15:36;;;;;;;5.38;4.00;;;;;;;38.73;27.61;100837.91;4703178;30;20208;-75
2023/09/07 10:18:06;;;;;;;12.35;4.78;;;;;;;36.90;29.30;100840.41;4706047;30;20568;-75
2023/09/07 10:20:55;;;;;;;6.90;4.07;;;;;;;35.02;31.96;100839.91;4704949;30;20655;-75
2023/09/07 10:23:39;;;;;;;6.75;3.70;;;;;;;32.90;35.31;100837.91;4701603;30;20217;-75
2023/09/07 10:26:20;;;;;;;10.80;6.03;;;;;;;31.11;38.87;100847.94;4706881;30;20678;-76
2023/09/07 10:29:00;;;;;;;7.60;5.18;;;;;;;29.83;41.01;100836.94;4708233;30;20220;-78
2023/09/07 10:31:30;;;;;;;8.02;5.40;;;;;;;29.03;42.58;100847.06;4704922;30;20224;-77
2023/09/07 10:34:18;;;;;;;11.25;4.80;;;;;;;28.43;44.24;100847.28;4704276;30;20252;-72
2023/09/07 10:36:46;;;;;;;8.68;4.40;;;;;;;28.05;45.21;100840.88;4704966;30;20217;-76
2023/09/07 10:39:17;;;;;;;7.20;4.50;;;;;;;27.78;45.81;100836.44;4704075;30;20291;-76
2023/09/07 10:41:51;;;;;;;8.10;4.57;;;;;;;27.61;45.60;100831.84;4704983;30;20317;-74
2023/09/07 10:44:26;;;;;;;7.75;5.22;;;;;;;27.67;45.46;100833.56;4695811;30;20247;-71
2023/09/07 10:46:54;;;;;;;9.68;4.57;;;;;;;27.66;45.91;100841.97;4704214;30;20306;-78
2023/09/07 10:49:23;;;;;;;7.63;4.30;;;;;;;27.64;46.60;100830.50;4702645;30;20275;-79
2023/09/07 10:51:51;;;;;;;9.85;4.72;;;;;;;27.45;46.74;100837.28;4704367;30;20320;-78
2023/09/07 10:54:32;;;;;;;7.45;5.07;;;;;;;27.23;47.59;100835.34;4702307;30;20216;-75
2023/09/07 10:57:11;;;;;;;9.65;5.43;;;;;;;27.38;47.07;100829.28;4703252;30;20208;-74
2023/09/07 10:59:39;;;;;;;9.77;4.93;;;;;;;27.77;45.94;100819.25;4703381;30;20216;-75
2023/09/07 11:02:08;;;;;;;6.53;4.68;;;;;;;27.93;45.85;100820.25;4704370;30;20668;-77
2023/09/07 11:04:39;;;;;;;10.05;5.50;;;;;;;27.70;46.46;100816.72;4702772;30;20216;-74
2023/09/07 11:07:08;;;;;;;9.73;4.72;;;;;;;27.59;46.52;100819.56;4702037;30;20228;-77
2023/09/07 11:09:41;;;;;;;8.50;5.07;;;;;;;27.59;47.16;100819.56;4702358;30;20225;-71
2023/09/07 11:12:13;;;;;;;6.65;4.88;;;;;;;27.56;47.29;100820.03;4703077;30;20220;-77
2023/09/07 11:14:41;;;;;;;8.63;5.10;;;;;;;27.50;47.53;100810.97;4704392;30;20217;-78
2023/09/07 11:17:11;;;;;;;8.48;5.00;;;;;;;27.76;46.89;100814.88;4703039;30;20221;-77
2023/09/07 11:19:43;;;;;;;9.43;4.85;;;;;;;28.97;44.84;100800.88;4702381;30;20633;-79
2023/09/07 11:22:11;;;;;;;9.63;4.75;;;;;;;29.85;43.13;100804.69;4704368;30;20220;-76
2023/09/07 11:24:40;;;;;;;7.82;4.45;;;;;;;29.52;43.33;100792.25;4703294;30;20220;-71
2023/09/07 11:27:13;;;;;;;8.52;4.95;;;;;;;28.81;44.46;100806.22;4701258;30;21202;-74
2023/09/07 11:29:42;;;;;;;8.85;4.90;;;;;;;28.47;45.29;100799.34;4703087;30;20225;-79
2023/09/07 11:32:12;;;;;;;7.25;4.03;;;;;;;28.70;44.90;100804.44;4701605;30;20234;-78
2023/09/07 11:34:49;;;;;;;12.05;4.50;;;;;;;29.52;43.41;100795.81;4704196;30;20255;-81
2023/09/07 11:37:18;;;;;;;7.93;4.38;;;;;;;30.48;41.44;100797.22;4703284;30;20668;-72
2023/09/07 11:39:46;;;;;;;7.07;4.45;;;;;;;32.65;37.94;100795.75;4701905;30;20236;-75
2023/09/07 11:42:18;;;;;;;10.18;4.53;;;;;;;35.42;33.59;100795.09;4700590;30;20247;-76
2023/09/07 11:44:46;;;;;;;9.02;5.05;;;;;;;37.12;30.41;100783.47;4703286;30;20244;-76
2023/09/07 11:47:17;;;;;;;7.43;4.32;;;;;;;37.96;29.45;100781.34;4702455;30;20262;-75
2023/09/07 11:50:00;;;;;;;11.13;7.57;;;;;;;38.51;28.47;100782.72;4702359;30;20643;-76
2023/09/07 11:52:34;;;;;;;6.72;5.15;;;;;;;39.48;27.56;100789.31;4704211;30;20220;-78
2023/09/07 11:55:04;;;;;;;7.28;4.95;;;;;;;41.22;25.64;100776.41;4701541;30;20643;-76
2023/09/07 11:57:41;;;;;;;10.07;5.50;;;;;;;43.41;22.81;100761.69;4703189;30;20260;-77
2023/09/07 12:00:14;;;;;;;6.68;4.65;;;;;;;42.06;24.43;100763.59;4701941;30;20339;-78
2023/09/07 12:02:48;;;;;;;7.72;4.93;;;;;;;40.27;26.10;100768.22;4701402;30;20311;-75
2023/09/07 12:05:19;;;;;;;13.43;5.28;;;;;;;38.66;27.82;100769.16;4703895;30;20250;-76
2023/09/07 12:07:47;;;;;;;9.30;4.47;;;;;;;37.05;30.18;100770.09;4704470;30;20223;-72
2023/09/07 12:10:15;;;;;;;8.57;3.80;;;;;;;36.34;31.08;100760.03;4703746;30;20222;-77
2023/09/07 12:12:48;;;;;;;8.00;4.60;;;;;;;36.19;31.43;100761.19;4701477;30;20244;-78
2023/09/07 12:15:19;;;;;;;5.20;3.92;;;;;;;36.14;32.08;100748.34;4704248;30;20282;-74
2023/09/07 12:17:48;;;;;;;6.85;4.25;;;;;;;35.34;32.61;100748.13;4704626;30;20273;-79
2023/09/07 12:20:24;;;;;;;6.03;4.53;;;;;;;33.84;34.03;100749.22;4707516;30;20213;-73
2023/09/07 12:23:31;;;;;;;8.48;5.60;;;;;;;32.53;36.04;100740.44;4711405;30;20219;-68
2023/09/07 12:26:00;;;;;;;5.72;4.05;;;;;;;31.51;38.07;100742.91;4720565;30;20209;-76
2023/09/07 12:28:29;;;;;;;7.22;4.50;;;;;;;30.89;39.60;100740.59;4717687;30;20224;-76
2023/09/07 12:30:58;;;;;;;7.88;5.18;;;;;;;30.34;40.86;100741.41;4714733;30;20224;-80
2023/09/07 12:33:29;;;;;;;8.45;4.75;;;;;;;30.01;41.47;100740.78;4717569;30;20650;-75
2023/09/07 12:35:59;;;;;;;5.50;3.80;;;;;;;29.83;40.92;100735.78;4704874;30;20242;-77
2023/09/07 12:38:29;;;;;;;10.73;5.28;;;;;;;29.59;42.32;100726.44;4703861;30;20227;-80
2023/09/07 12:40:57;;;;;;;5.72;4.32;;;;;;;29.43;42.75;100723.63;4702930;30;20204;-74
2023/09/07 12:43:25;;;;;;;6.70;4.25;;;;;;;29.39;42.87;100724.44;4702930;30;20316;-77
2023/09/07 12:45:58;;;;;;;7.88;4.80;;;;;;;29.23;42.97;100725.41;4703980;30;20228;-78
2023/09/07 12:48:27;;;;;;;6.35;4.13;;;;;;;29.07;42.77;100722.59;4702926;30;20224;-77
2023/09/07 12:50:55;;;;;;;6.43;4.10;;;;;;;29.04;42.73;100722.28;4701901;30;20300;-75
2023/09/07 12:53:25;;;;;;;7.10;4.00;;;;;;;28.94;42.06;100722.25;4703972;30;20895;-75
2023/09/07 12:55:54;;;;;;;6.05;4.20;;;;;;;28.86;42.44;100726.28;4702509;30;20223;-78
2023/09/07 12:58:22;;;;;;;5.22;3.78;;;;;;;28.75;42.15;100717.19;4702863;30;20247;-72
2023/09/07 13:00:51;;;;;;;8.38;5.28;;;;;;;28.67;42.18;100720.41;4702852;30;20285;-70
2023/09/07 13:03:21;;;;;;;9.57;5.03;;;;;;;28.63;42.46;100722.00;4701552;30;20265;-78
2023/09/07 13:05:50;;;;;;;7.43;4.18;;;;;;;28.57;43.36;100716.78;4702084;30;20697;-76
2023/09/07 13:08:18;;;;;;;8.68;4.88;;;;;;;28.47;43.55;100712.06;4702916;30;20217;-78
2023/09/07 13:10:46;;;;;;;6.28;4.47;;;;;;;28.48;43.22;100713.72;4702036;30;20217;-73
2023/09/07 13:13:14;;;;;;;9.43;4.57;;;;;;;28.53;41.97;100715.63;4701555;30;20232;-73
2023/09/07 13:15:42;;;;;;;10.02;4.35;;;;;;;28.51;41.29;100718.63;4702798;30;20318;-76
2023/09/07 13:18:10;;;;;;;5.20;3.80;;;;;;;28.45;41.22;100708.75;4702566;30;20282;-77
2023/09/07 13:20:39;;;;;;;6.28;3.42;;;;;;;28.46;41.00;100699.50;4701257;30;20212;-73
2023/09/07 13:23:07;;;;;;;5.35;3.88;;;;;;;28.44;41.40;100701.66;4705264;30;20236;-72
2023/09/07 13:25:38;;;;;;;8.15;4.30;;;;;;;28.33;41.76;100700.75;4705942;30;20225;-74
2023/09/07 13:28:07;;;;;;;7.53;4.50;;;;;;;28.31;42.54;100697.47;4706214;30;20240;-77
2023/09/07 13:30:35;;;;;;;6.80;4.47;;;;;;;28.31;41.83;100693.94;4705589;30;20736;-78
2023/09/07 13:33:03;;;;;;;9.70;4.80;;;;;;;28.35;41.61;100703.22;4703972;30;20221;-76
2023/09/07 13:35:31;;;;;;;6.78;3.88;;;;;;;28.32;41.55;100695.56;4705331;30;20232;-74
2023/09/07 13:38:01;;;;;;;8.20;4.40;;;;;;;28.32;42.16;100693.66;4705330;30;20232;-77
2023/09/07 13:40:30;;;;;;;6.93;3.83;;;;;;;28.34;41.60;100688.75;4704609;30;20213;-72
2023/09/07 13:42:58;;;;;;;5.63;3.67;;;;;;;28.43;41.61;100687.19;4705553;30;20235;-72
2023/09/07 13:45:29;;;;;;;7.57;4.03;;;;;;;28.40;41.38;100687.75;4703361;30;20221;-74
2023/09/07 13:47:57;;;;;;;5.70;3.72;;;;;;;28.41;41.50;100685.81;4707141;30;20314;-77
2023/09/07 13:50:26;;;;;;;5.60;3.92;;;;;;;28.38;41.26;100678.16;4707547;30;20830;-73
2023/09/07 13:52:54;;;;;;;8.05;4.07;;;;;;;28.35;41.67;100678.69;4705766;30;20634;-75
2023/09/07 13:55:41;;;;;;;7.57;4.00;;;;;;;28.32;41.27;100680.00;4706810;30;20256;-73
2023/09/07 13:58:13;;;;;;;7.53;4.65;;;;;;;28.31;41.52;100680.28;4707205;30;20291;-73
2023/09/07 14:00:41;;;;;;;6.85;4.10;;;;;;;28.34;41.44;100683.31;4708417;30;20204;-77
2023/09/07 14:03:09;;;;;;;5.18;3.75;;;;;;;28.37;41.29;100684.69;4709017;30;20213;-76
2023/09/07 14:05:38;;;;;;;10.65;3.80;;;;;;;28.32;40.82;100680.00;4707800;30;20230;-77
2023/09/07 14:08:09;;;;;;;6.95;4.18;;;;;;;28.32;41.37;100679.22;4704047;30;20216;-76
2023/09/07 14:10:38;;;;;;;8.90;4.90;;;;;;;28.33;41.52;100678.09;4713234;30;20205;-77
2023/09/07 14:13:06;;;;;;;7.90;4.43;;;;;;;28.42;41.52;100679.28;4712793;30;20224;-75
2023/09/07 14:15:44;;;;;;;9.35;3.85;;;;;;;28.39;41.23;100672.44;4720570;30;20322;-71
2023/09/07 14:18:12;;;;;;;8.95;4.70;;;;;;;28.34;41.44;100668.84;4710092;30;20607;-81
2023/09/07 14:20:41;;;;;;;7.80;4.13;;;;;;;28.31;41.91;100666.66;4705257;30;20232;-77
2023/09/07 14:23:09;;;;;;;6.47;3.83;;;;;;;28.33;41.69;100672.66;4703492;30;20213;-78
2023/09/07 14:25:41;;;;;;;5.03;3.58;;;;;;;28.42;40.32;100661.00;4704832;30;20228;-80
2023/09/07 14:28:13;;;;;;;6.60;3.80;;;;;;;28.41;39.75;100663.97;4706745;30;20307;-73
2023/09/07 14:30:45;;;;;;;7.75;4.00;;;;;;;28.36;40.35;100663.97;4703391;30;20216;-76
2023/09/07 14:33:17;;;;;;;5.05;3.53;;;;;;;28.39;41.08;100666.19;4704262;30;20592;-71
2023/09/07 14:35:46;;;;;;;5.88;4.15;;;;;;;28.32;41.40;100669.09;4712784;30;20233;-80
2023/09/07 14:38:15;;;;;;;15.00;5.18;;;;;;;28.31;41.06;100663.94;4710014;30;20224;-80
2023/09/07 14:40:45;;;;;;;6.07;4.45;;;;;;;28.28;41.13;100661.72;4710103;30;20213;-74
2023/09/07 14:43:13;;;;;;;13.13;4.90;;;;;;;28.22;40.85;100663.59;4713432;30;20252;-80
2023/09/07 14:45:42;;;;;;;8.43;4.30;;;;;;;28.19;40.66;100666.00;4710794;30;20523;-77
2023/09/07 14:48:10;;;;;;;9.18;4.28;;;;;;;28.23;39.50;100661.69;4707848;30;20412;-79
2023/09/07 14:50:41;;;;;;;9.32;3.47;;;;;;;28.26;38.49;100661.16;4712576;30;20274;-79
2023/09/07 14:53:11;;;;;;;7.40;3.85;;;;;;;28.28;37.57;100659.81;4710947;30;20220;-76
2023/09/07 14:55:45;;;;;;;11.80;5.53;;;;;;;28.29;37.78;100663.38;4707104;30;20223;-78
2023/09/07 14:58:14;;;;;;;12.35;5.43;;;;;;;28.31;38.16;100659.31;4705617;30;20220;-76
2023/09/07 15:00:41;;;;;;;6.20;4.50;;;;;;;28.30;38.34;100656.81;4707002;30;20567;-78
2023/09/07 15:03:10;;;;;;;10.73;4.70;;;;;;;28.29;38.31;100656.00;4704032;30;20307;-75
2023/09/07 15:05:39;;;;;;;8.38;4.68;;;;;;;28.26;38.12;100655.69;4702816;30;20231;-79
2023/09/07 15:08:08;;;;;;;7.22;4.15;;;;;;;28.22;38.50;100655.41;4702725;30;20217;-73
2023/09/07 15:10:36;;;;;;;6.10;4.15;;;;;;;28.20;38.36;100656.75;4705314;30;20599;-78
2023/09/07 15:13:06;;;;;;;7.55;4.05;;;;;;;28.22;38.57;100654.59;4702767;30;20665;-78
2023/09/07 15:15:37;;;;;;;7.90;4.13;;;;;;;28.16;39.00;100650.97;4702458;30;20648;-77
2023/09/07 15:18:06;;;;;;;6.97;4.07;;;;;;;28.16;38.97;100644.66;4703438;30;20600;-74
2023/09/07 15:20:34;;;;;;;6.90;4.30;;;;;;;28.11;39.96;100644.63;4702897;30;20311;-75
2023/09/07 15:23:03;;;;;;;5.30;3.83;;;;;;;28.09;40.49;100648.44;4704168;30;20244;-75
2023/09/07 15:25:33;;;;;;;9.00;3.72;;;;;;;28.05;40.09;100644.59;4705346;30;20212;-78
2023/09/07 15:28:01;;;;;;;6.47;4.10;;;;;;;28.00;40.58;100647.25;4703569;30;20674;-72
2023/09/07 15:30:31;;;;;;;6.18;3.80;;;;;;;27.96;40.54;100646.16;4709570;30;20227;-68
2023/09/07 15:33:00;;;;;;;6.35;4.00;;;;;;;27.96;40.35;100646.16;4706544;30;20861;-77
2023/09/07 15:38:50;;;;;;;8.13;3.70;;;;;;;27.95;38.78;100651.84;5102689;24;20346;-76
2023/09/07 15:41:19;;;;;;;7.47;3.45;;;;;;;27.93;38.91;100643.13;4728437;30;20310;-74
2023/09/07 15:43:47;;;;;;;6.35;4.13;;;;;;;28.03;39.31;100652.22;4708282;30;20572;-74
2023/09/07 15:46:17;;;;;;;6.47;4.28;;;;;;;27.98;39.53;100643.16;4710642;30;20221;-74
2023/09/07 15:48:46;;;;;;;5.70;4.10;;;;;;;27.95;39.63;100652.69;4707359;30;20227;-76
2023/09/07 15:51:14;;;;;;;8.75;4.47;;;;;;;27.92;39.42;100650.47;4707160;30;20217;-77
2023/09/07 15:53:42;;;;;;;6.43;4.07;;;;;;;27.89;41.67;100652.88;4713468;30;20219;-72
2023/09/07 15:56:13;;;;;;;8.65;3.85;;;;;;;27.68;44.33;100658.13;4707197;30;20673;-71
2023/09/07 15:58:41;;;;;;;6.05;4.03;;;;;;;27.48;42.82;100648.88;4707783;30;20220;-76
2023/09/07 16:01:10;;;;;;;8.77;4.10;;;;;;;27.42;42.58;100641.72;4705357;30;20213;-76
2023/09/07 16:03:43;;;;;;;11.15;3.88;;;;;;;27.40;42.29;100652.06;4704797;30;20253;-72
2023/09/07 16:06:12;;;;;;;11.73;4.75;;;;;;;27.27;44.22;100648.63;4707485;30;20211;-70
2023/09/07 16:08:40;;;;;;;7.15;4.10;;;;;;;27.16;44.85;100646.88;4705369;30;20622;-70
2023/09/07 16:11:08;;;;;;;9.95;4.35;;;;;;;27.06;43.21;100648.63;4707668;30;20269;-71
2023/09/07 16:13:36;;;;;;;8.07;4.30;;;;;;;27.05;41.59;100650.53;4710221;30;20286;-77
2023/09/07 16:16:04;;;;;;;7.32;3.85;;;;;;;27.14;40.05;100646.28;4712160;30;20239;-74
2023/09/07 16:18:33;;;;;;;5.78;3.67;;;;;;;27.22;39.74;100651.28;4709542;30;20239;-73
2023/09/07 16:21:06;;;;;;;7.82;3.97;;;;;;;27.28;39.85;100644.84;4705602;30;20625;-70
2023/09/07 16:23:34;;;;;;;4.72;3.83;;;;;;;27.33;40.45;100653.06;4708711;30;20208;-69
2023/09/07 16:26:02;;;;;;;7.53;3.83;;;;;;;27.35;40.51;100650.91;4711649;30;20663;-77
2023/09/07 16:28:29;;;;;;;5.22;3.60;;;;;;;27.38;40.52;100649.56;4708953;30;20212;-76
2023/09/07 16:30:58;;;;;;;9.77;6.13;;;;;;;27.40;40.59;100643.88;4708043;30;20220;-68
2023/09/07 16:33:26;;;;;;;6.25;4.43;;;;;;;27.40;40.56;100647.44;4705171;30;20208;-71
2023/09/07 16:35:54;;;;;;;8.20;4.07;;;;;;;27.40;40.18;100652.88;4703005;30;20325;-71
2023/09/07 16:38:23;;;;;;;9.00;4.95;;;;;;;27.39;40.24;100642.22;4705962;30;20212;-70
2023/09/07 16:40:51;;;;;;;10.10;7.10;;;;;;;27.35;40.20;100650.09;4711400;30;20963;-82
2023/09/07 16:43:19;;;;;;;12.00;6.60;;;;;;;27.35;40.80;100656.34;4709589;30;20294;-78
2023/09/07 16:45:47;;;;;;;8.50;5.35;;;;;;;27.32;40.74;100651.44;4710571;30;20270;-82
2023/09/07 16:48:15;;;;;;;10.23;4.40;;;;;;;27.32;40.73;100659.59;4706171;30;20244;-77
2023/09/07 16:50:45;;;;;;;6.72;4.18;;;;;;;27.31;40.48;100655.22;4707025;30;20738;-78
2023/09/07 16:53:13;;;;;;;5.22;3.97;;;;;;;27.29;40.61;100656.53;4708180;30;20226;-81
2023/09/07 16:55:43;;;;;;;8.00;4.80;;;;;;;27.27;40.61;100659.50;4707726;30;20243;-82
2023/09/07 16:58:11;;;;;;;5.95;4.20;;;;;;;27.25;40.83;100664.41;4711836;30;20269;-73
2023/09/07 17:00:38;;;;;;;7.63;4.22;;;;;;;27.24;40.84;100661.94;4707298;30;20248;-74
2023/09/07 17:03:07;;;;;;;9.73;4.90;;;;;;;27.23;41.14;100666.56;4706139;30;20220;-73
2023/09/07 17:05:35;;;;;;;7.85;4.40;;;;;;;27.19;40.85;100661.84;4705171;30;20209;-73
2023/09/07 17:08:06;;;;;;;6.65;4.72;;;;;;;27.17;40.91;100659.41;4705727;30;20216;-73
2023/09/07 17:10:34;;;;;;;7.97;4.03;;;;;;;27.15;40.99;100655.28;4706013;30;20208;-73
2023/09/07 17:13:03;;;;;;;6.43;4.60;;;;;;;27.14;40.54;100649.03;4706006;30;20343;-78
2023/09/07 17:15:31;;;;;;;6.95;4.15;;;;;;;27.12;41.01;100659.34;4705491;30;20219;-69
2023/09/07 17:17:59;;;;;;;6.18;4.22;;;;;;;27.10;41.18;100656.03;4703237;30;20220;-75
2023/09/07 17:20:27;;;;;;;9.93;4.45;;;;;;;27.08;41.04;100662.81;4709444;30;20301;-75
2023/09/07 21:35:05;;;;;;;15.20;5.85;;;;;;;23.37;58.60;100729.03;4769770;29;20222;-74
